Time,TemperatureF,DewpointF,PressureIn,WindDirection,WindDirectionDegrees,WindSpeedMPH,WindSpeedGustMPH,Humidity,HourlyPrecipIn,Conditions,Clouds,dailyrainin,SoftwareType,DateUTC
2013-05-12 00:00:00,54.1,53.6,29.86,NNE,22,1.6,-999.0,98,-99.99,,,0.00,Acu-Link.com,2013-05-12 04:00:00,
2013-05-12 00:15:00,54.5,53.9,29.86,NE,45,3.1,-999.0,98,-99.99,,,0.00,Acu-Link.com,2013-05-12 04:15:00,
2013-05-12 00:30:00,54.0,53.4,29.86,NNE,22,6.3,-999.0,98,-99.99,,,0.00,Acu-Link.com,2013-05-12 04:30:00,
2013-05-12 00:46:00,53.4,52.3,29.86,NNW,337,5.1,-999.0,96,-99.99,,,0.00,Acu-Link.com,2013-05-12 04:46:00,
2013-05-12 01:01:00,53.1,51.9,29.86,NNW,337,4.3,-999.0,96,-99.99,,,0.00,Acu-Link.com,2013-05-12 05:01:00,
2013-05-12 01:16:00,52.3,51.8,29.86,NNE,22,8.3,-999.0,98,-99.99,,,0.00,Acu-Link.com,2013-05-12 05:16:00,
2013-05-12 01:31:00,51.4,50.9,29.86,NNW,337,2.2,-999.0,98,-99.99,,,0.00,Acu-Link.com,2013-05-12 05:31:00,
2013-05-12 01:46:00,50.7,50.2,29.87,SSW,202,3.1,-999.0,98,-99.99,,,0.00,Acu-Link.com,2013-05-12 05:46:00,
2013-05-12 02:01:00,49.5,48.9,29.87,West,270,1.6,-999.0,98,-99.99,,,0.00,Acu-Link.com,2013-05-12 06:01:00,
2013-05-12 02:17:00,48.6,48.0,29.87,NNE,22,2.7,-999.0,98,-99.99,,,0.00,Acu-Link.com,2013-05-12 06:17:00,
2013-05-12 02:32:00,48.4,47.6,29.86,North,0,4.7,-999.0,97,-99.99,,,0.00,Acu-Link.com,2013-05-12 06:32:00,
2013-05-12 02:47:00,49.3,47.9,29.87,NNW,337,2.2,-999.0,95,-99.99,,,0.00,Acu-Link.com,2013-05-12 06:47:00,
2013-05-12 03:02:00,49.1,48.3,29.86,West,270,1.6,-999.0,97,-99.99,,,0.00,Acu-Link.com,2013-05-12 07:02:00,
2013-05-12 03:18:00,49.1,48.6,29.85,West,270,0.0,-999.0,98,-99.99,,,0.00,Acu-Link.com,2013-05-12 07:18:00,
2013-05-12 03:33:00,48.7,48.2,29.85,SSW,202,0.0,-999.0,98,-99.99,,,0.00,Acu-Link.com,2013-05-12 07:33:00,
2013-05-12 03:48:00,48.0,47.5,29.85,NW,315,0.0,-999.0,98,-99.99,,,0.00,Acu-Link.com,2013-05-12 07:48:00,
2013-05-12 04:04:00,48.0,47.5,29.84,NW,315,0.0,-999.0,98,-99.99,,,0.00,Acu-Link.com,2013-05-12 08:04:00,
2013-05-12 04:19:00,48.0,47.5,29.84,NW,315,0.0,-999.0,98,-99.99,,,0.00,Acu-Link.com,2013-05-12 08:19:00,
2013-05-12 04:34:00,47.7,47.1,29.84,NW,315,0.0,-999.0,98,-99.99,,,0.00,Acu-Link.com,2013-05-12 08:34:00,
2013-05-12 04:49:00,48.0,47.5,29.84,NW,315,1.1,-999.0,98,-99.99,,,0.00,Acu-Link.com,2013-05-12 08:49:00,
2013-05-12 05:04:00,48.6,48.0,29.84,South,180,1.6,-999.0,98,-99.99,,,0.00,Acu-Link.com,2013-05-12 09:04:00,
2013-05-12 05:20:00,48.0,47.5,29.83,NE,45,11.9,-999.0,98,-99.99,,,0.00,Acu-Link.com,2013-05-12 09:20:00,
2013-05-12 05:35:00,45.3,44.8,29.86,North,0,11.0,-999.0,98,-99.99,,,0.01,Acu-Link.com,2013-05-12 09:35:00,
2013-05-12 05:50:00,44.6,44.1,29.87,NW,315,4.7,-999.0,98,-99.99,,,0.01,Acu-Link.com,2013-05-12 09:50:00,
2013-05-12 06:06:00,44.1,43.5,29.87,NE,45,2.7,-999.0,98,-99.99,,,0.01,Acu-Link.com,2013-05-12 10:06:00,
2013-05-12 06:21:00,44.1,42.2,29.87,West,270,7.4,-999.0,93,-99.99,,,0.01,Acu-Link.com,2013-05-12 10:21:00,
2013-05-12 06:36:00,43.9,41.7,29.89,SW,225,4.7,-999.0,92,-99.99,,,0.01,Acu-Link.com,2013-05-12 10:36:00,
2013-05-12 06:52:00,43.7,41.0,29.89,West,270,4.7,-999.0,90,-99.99,,,0.01,Acu-Link.com,2013-05-12 10:52:00,
2013-05-12 07:07:00,44.1,40.7,29.89,NW,315,2.2,-999.0,88,-99.99,,,0.01,Acu-Link.com,2013-05-12 11:07:00,
2013-05-12 07:22:00,44.8,41.2,29.90,West,270,6.7,-999.0,87,-99.99,,,0.01,Acu-Link.com,2013-05-12 11:22:00,
2013-05-12 07:38:00,46.6,42.0,29.90,North,0,3.8,-999.0,84,-99.99,,,0.01,Acu-Link.com,2013-05-12 11:38:00,
2013-05-12 07:53:00,46.9,41.4,29.90,WNW,292,6.3,-999.0,81,-99.99,,,0.01,Acu-Link.com,2013-05-12 11:53:00,
2013-05-12 08:08:00,45.9,39.4,29.90,NNW,337,3.8,-999.0,78,-99.99,,,0.01,Acu-Link.com,2013-05-12 12:08:00,
2013-05-12 08:23:00,48.0,39.8,29.91,NW,315,7.8,-999.0,73,-99.99,,,0.01,Acu-Link.com,2013-05-12 12:23:00,
2013-05-12 08:39:00,46.8,39.6,29.91,WNW,292,3.1,-999.0,76,-99.99,,,0.01,Acu-Link.com,2013-05-12 12:39:00,
2013-05-12 08:54:00,47.3,39.1,29.91,NNW,337,9.8,-999.0,73,-99.99,,,0.01,Acu-Link.com,2013-05-12 12:54:00,
2013-05-12 09:09:00,47.7,39.1,29.92,West,270,8.9,-999.0,72,-99.99,,,0.01,Acu-Link.com,2013-05-12 13:09:00,
2013-05-12 09:24:00,48.4,38.7,29.92,North,0,6.7,-999.0,69,-99.99,,,0.01,Acu-Link.com,2013-05-12 13:24:00,
2013-05-12 09:39:00,48.6,38.9,29.93,ESE,112,4.3,-999.0,69,-99.99,,,0.01,Acu-Link.com,2013-05-12 13:39:00,
2013-05-12 09:54:00,48.6,36.9,29.93,West,270,7.8,-999.0,64,-99.99,,,0.01,Acu-Link.com,2013-05-12 13:54:00,
2013-05-12 10:09:00,49.8,39.7,29.93,WNW,292,3.1,-999.0,68,-99.99,,,0.01,Acu-Link.com,2013-05-12 14:09:00,
2013-05-12 10:25:00,47.5,37.5,29.93,NNE,22,5.8,-999.0,68,-99.99,,,0.01,Acu-Link.com,2013-05-12 14:25:00,
2013-05-12 10:40:00,48.2,36.6,29.93,North,0,13.4,-999.0,64,-99.99,,,0.01,Acu-Link.com,2013-05-12 14:40:00,
2013-05-12 10:55:00,48.4,36.0,29.93,NNE,22,6.7,-999.0,62,-99.99,,,0.01,Acu-Link.com,2013-05-12 14:55:00,
2013-05-12 11:10:00,50.0,37.1,29.93,SW,225,9.8,-999.0,61,-99.99,,,0.01,Acu-Link.com,2013-05-12 15:10:00,
2013-05-12 11:26:00,50.2,36.8,29.93,WNW,292,7.4,-999.0,60,-99.99,,,0.01,Acu-Link.com,2013-05-12 15:26:00,
2013-05-12 11:41:00,50.5,37.6,29.93,West,270,2.7,-999.0,61,-99.99,,,0.01,Acu-Link.com,2013-05-12 15:41:00,
2013-05-12 11:56:00,50.4,36.6,29.94,West,270,4.7,-999.0,59,-99.99,,,0.01,Acu-Link.com,2013-05-12 15:56:00,
2013-05-12 12:11:00,52.5,39.5,29.93,WNW,292,8.9,-999.0,61,-99.99,,,0.01,Acu-Link.com,2013-05-12 16:11:00,
2013-05-12 12:26:00,51.8,37.1,29.93,NW,315,14.5,-999.0,57,-99.99,,,0.01,Acu-Link.com,2013-05-12 16:26:00,
2013-05-12 12:41:00,52.9,38.1,29.94,SW,225,8.9,-999.0,57,-99.99,,,0.01,Acu-Link.com,2013-05-12 16:41:00,
2013-05-12 12:57:00,54.3,39.4,29.94,WSW,247,7.8,-999.0,57,-99.99,,,0.01,Acu-Link.com,2013-05-12 16:57:00,
2013-05-12 13:12:00,54.5,38.2,29.94,North,0,9.8,-999.0,54,-99.99,,,0.01,Acu-Link.com,2013-05-12 17:12:00,
2013-05-12 13:27:00,53.2,36.6,29.94,NNW,337,8.9,-999.0,53,-99.99,,,0.01,Acu-Link.com,2013-05-12 17:27:00,
2013-05-12 13:42:00,53.8,35.6,29.94,NNW,337,13.0,-999.0,50,-99.99,,,0.01,Acu-Link.com,2013-05-12 17:42:00,
2013-05-12 13:57:00,55.0,38.2,29.94,WSW,247,6.7,-999.0,53,-99.99,,,0.01,Acu-Link.com,2013-05-12 17:57:00,
2013-05-12 14:13:00,54.9,38.5,29.95,NNW,337,5.8,-999.0,54,-99.99,,,0.01,Acu-Link.com,2013-05-12 18:13:00,
2013-05-12 14:28:00,54.5,36.7,29.95,NW,315,8.3,-999.0,51,-99.99,,,0.01,Acu-Link.com,2013-05-12 18:28:00,
2013-05-12 14:43:00,53.1,36.4,29.95,NW,315,4.3,-999.0,53,-99.99,,,0.01,Acu-Link.com,2013-05-12 18:43:00,
2013-05-12 14:59:00,53.1,35.9,29.95,NW,315,3.1,-999.0,52,-99.99,,,0.01,Acu-Link.com,2013-05-12 18:59:00,
2013-05-12 15:14:00,54.7,36.9,29.96,SW,225,5.8,-999.0,51,-99.99,,,0.01,Acu-Link.com,2013-05-12 19:14:00,
2013-05-12 15:29:00,55.8,38.4,29.95,ENE,67,3.1,-999.0,52,-99.99,,,0.01,Acu-Link.com,2013-05-12 19:29:00,
2013-05-12 15:44:00,55.6,38.2,29.95,South,180,7.4,-999.0,52,-99.99,,,0.01,Acu-Link.com,2013-05-12 19:44:00,
2013-05-12 16:00:00,55.2,37.4,29.95,NE,45,13.4,-999.0,51,-99.99,,,0.01,Acu-Link.com,2013-05-12 20:00:00,
2013-05-12 16:15:00,55.0,36.7,29.95,West,270,7.8,-999.0,50,-99.99,,,0.01,Acu-Link.com,2013-05-12 20:15:00,
2013-05-12 16:30:00,55.2,37.9,29.95,NNE,22,11.0,-999.0,52,-99.99,,,0.01,Acu-Link.com,2013-05-12 20:30:00,
2013-05-12 16:45:00,55.8,36.9,29.96,NW,315,6.7,-999.0,49,-99.99,,,0.01,Acu-Link.com,2013-05-12 20:45:00,
2013-05-12 17:00:00,56.3,37.9,29.96,NNW,337,3.1,-999.0,50,-99.99,,,0.01,Acu-Link.com,2013-05-12 21:00:00,
2013-05-12 17:16:00,56.5,35.4,29.96,West,270,7.4,-999.0,45,-99.99,,,0.01,Acu-Link.com,2013-05-12 21:16:00,
2013-05-12 17:31:00,55.9,36.5,29.96,WNW,292,15.0,-999.0,48,-99.99,,,0.01,Acu-Link.com,2013-05-12 21:31:00,
2013-05-12 17:46:00,56.5,37.0,29.96,WNW,292,7.8,-999.0,48,-99.99,,,0.01,Acu-Link.com,2013-05-12 21:46:00,
2013-05-12 18:01:00,53.4,35.3,29.96,NNE,22,5.8,-999.0,50,-99.99,,,0.01,Acu-Link.com,2013-05-12 22:01:00,
2013-05-12 18:16:00,51.8,34.7,29.97,NW,315,7.4,-999.0,52,-99.99,,,0.01,Acu-Link.com,2013-05-12 22:16:00,
2013-05-12 18:32:00,52.2,34.6,29.96,WSW,247,11.0,-999.0,51,-99.99,,,0.01,Acu-Link.com,2013-05-12 22:32:00,
2013-05-12 18:47:00,51.6,34.6,29.96,North,0,7.8,-999.0,52,-99.99,,,0.01,Acu-Link.com,2013-05-12 22:47:00,
2013-05-12 19:02:00,51.1,34.6,29.97,WNW,292,4.7,-999.0,53,-99.99,,,0.01,Acu-Link.com,2013-05-12 23:02:00,
2013-05-12 19:18:00,51.1,34.6,29.97,West,270,2.2,-999.0,53,-99.99,,,0.01,Acu-Link.com,2013-05-12 23:18:00,
2013-05-12 19:33:00,50.4,34.8,29.98,West,270,3.8,-999.0,55,-99.99,,,0.01,Acu-Link.com,2013-05-12 23:33:00,
2013-05-12 19:48:00,49.5,34.4,29.98,WNW,292,3.8,-999.0,56,-99.99,,,0.01,Acu-Link.com,2013-05-12 23:48:00,
2013-05-12 20:03:00,48.9,34.4,29.98,West,270,4.3,-999.0,57,-99.99,,,0.01,Acu-Link.com,2013-05-13 00:03:00,
2013-05-12 20:19:00,48.4,34.3,29.99,West,270,3.1,-999.0,58,-99.99,,,0.01,Acu-Link.com,2013-05-13 00:19:00,
2013-05-12 20:34:00,47.1,35.2,29.99,SW,225,0.0,-999.0,63,-99.99,,,0.01,Acu-Link.com,2013-05-13 00:34:00,
2013-05-12 20:49:00,46.0,35.7,30.00,North,0,1.1,-999.0,67,-99.99,,,0.01,Acu-Link.com,2013-05-13 00:49:00,
2013-05-12 21:04:00,46.0,34.2,30.00,South,180,2.2,-999.0,63,-99.99,,,0.01,Acu-Link.com,2013-05-13 01:04:00,
2013-05-12 21:19:00,44.6,35.1,30.00,West,270,2.2,-999.0,69,-99.99,,,0.01,Acu-Link.com,2013-05-13 01:19:00,
2013-05-12 21:35:00,43.0,36.6,30.01,West,270,0.0,-999.0,78,-99.99,,,0.01,Acu-Link.com,2013-05-13 01:35:00,
2013-05-12 21:50:00,40.8,36.1,30.02,West,270,0.0,-999.0,83,-99.99,,,0.01,Acu-Link.com,2013-05-13 01:50:00,
2013-05-12 22:05:00,39.6,37.2,30.03,West,270,0.0,-999.0,91,-99.99,,,0.01,Acu-Link.com,2013-05-13 02:05:00,
2013-05-12 22:20:00,37.9,35.8,30.03,West,270,0.0,-999.0,92,-99.99,,,0.01,Acu-Link.com,2013-05-13 02:20:00,
2013-05-12 22:35:00,36.9,35.8,30.04,West,270,0.0,-999.0,96,-99.99,,,0.01,Acu-Link.com,2013-05-13 02:35:00,
2013-05-12 22:51:00,35.8,35.3,30.04,West,270,0.0,-999.0,98,-99.99,,,0.01,Acu-Link.com,2013-05-13 02:51:00,
2013-05-12 23:06:00,35.6,35.1,30.04,West,270,1.1,-999.0,98,-99.99,,,0.01,Acu-Link.com,2013-05-13 03:06:00,
2013-05-12 23:21:00,36.0,35.5,30.04,West,270,0.0,-999.0,98,-99.99,,,0.01,Acu-Link.com,2013-05-13 03:21:00,
2013-05-12 23:36:00,35.6,35.1,30.05,West,270,0.0,-999.0,98,-99.99,,,0.01,Acu-Link.com,2013-05-13 03:36:00,
2013-05-12 23:52:00,35.1,34.6,30.04,West,270,0.0,-999.0,98,-99.99,,,0.01,Acu-Link.com,2013-05-13 03:52:00,